LiveATC.Net - Listen to live air traffic control over the Internet!


ICAO: UNKL  IATA: KJA   Airport: Yemelyanovo International Airport
City: Krasnoyarsk
Country: Russia   Continent: Asia
UNKL METAR Weather: UNKL 071000Z 23003MPS 190V260 9999 SCT045 M07/M14 Q1019 R29/410150 NOSIG RMK QFE738
UNKL Flight Activity (FlightAware)
UNKL Gnd/Twr/App
Feed Status: DOWN
Last heard on: 2016-12-07 10:38:03 (0 days 0 hours 1 minutes ago)
UNKL Gnd/Twr/App Audio Archives
FacilityFrequency
Krasnoyarsk Approach127.700
Krasnoyarsk Ground121.700
Krasnoyarsk Krug122.000
Krasnoyarsk Tower118.300


NOTICE

Unauthorized use prohibited. See LiveATC.net Terms of Service


Find LiveATC Audio Streams


Airport/ARTCC Code

Frequency
(e.g., 124.400, 128.75)
Site-wide search

Browse LiveATC Feeds
LiveATC Coverage Map
Top 50 LiveATC Feeds
Bad Weather Areas

LiveATC FAQ
Offer a LiveATC Feed
Contact LiveATC.net
Press Inquiries

LiveATC on iPhone
LiveATC on Android

Windows Phone
Windows 8/10

LiveATC Mobile
(Mobile browser)

ATC Audio Archives
Interesting Recordings

LiveATC Forums


Home Page
About LiveATC.net
Make a Donation
LiveATC Store

Terms of Use
Privacy Policy

Canadian Air Freqs

AIRMETs/SIGMETs

FAA Airport Status
Nat'l Airspace Status
Arrival Demand Charts


Server Software By:
Icecast.org
Liquidsoap